createdAt,value
2017-05-27T00:07:28.897Z,5.34
2017-05-27T00:28:35.763Z,6.22
2017-05-27T00:49:42.497Z,5.48
2017-05-27T01:10:49.102Z,6.04
2017-05-27T01:38:09.439Z,5.60
2017-05-27T01:59:17.256Z,6.42
2017-05-27T02:20:38.740Z,5.96
2017-05-27T02:41:46.226Z,6.00
2017-05-27T03:02:53.129Z,4.14
2017-05-27T03:24:00.368Z,4.60
2017-05-27T03:45:07.120Z,5.54
2017-05-27T04:06:13.527Z,5.68
2017-05-27T04:27:20.241Z,5.74
2017-05-27T04:48:27.755Z,5.78
2017-05-27T05:09:35.254Z,5.86
2017-05-27T05:30:42.936Z,5.42
2017-05-27T05:51:50.032Z,5.50
2017-05-27T06:12:57.825Z,5.50
2017-05-27T06:34:04.353Z,5.56
2017-05-27T06:55:12.170Z,5.32
2017-05-27T07:16:18.947Z,3.98
2017-05-27T07:37:25.379Z,3.68
2017-05-27T07:58:32.497Z,3.70
2017-05-27T08:19:39.508Z,4.20
2017-05-27T08:40:45.892Z,4.64
2017-05-27T09:01:52.117Z,3.76
2017-05-27T09:22:58.456Z,4.70
2017-05-27T09:44:05.385Z,4.88
2017-05-27T10:05:12.930Z,3.86
2017-05-27T10:26:19.912Z,4.36
2017-05-27T10:47:26.360Z,7.26
2017-05-27T11:08:33.762Z,5.98
2017-05-27T11:29:41.938Z,4.06
2017-05-27T11:50:48.846Z,2.44
2017-05-27T12:11:55.711Z,2.54
2017-05-27T12:33:02.479Z,1.90
2017-05-27T12:54:08.781Z,1.82
2017-05-27T13:15:15.951Z,2.20
2017-05-27T13:39:29.594Z,2.46
2017-05-27T14:00:37.648Z,2.22
2017-05-27T14:21:45.271Z,2.70
2017-05-27T14:42:53.405Z,2.46
2017-05-27T15:04:00.626Z,2.40
2017-05-27T15:25:07.386Z,2.04
2017-05-27T15:46:13.524Z,2.14
2017-05-27T16:07:20.659Z,2.30
2017-05-27T16:28:28.632Z,2.26
2017-05-27T16:49:36.130Z,2.10
2017-05-27T17:10:42.848Z,2.48
2017-05-27T17:31:50.178Z,2.92
2017-05-27T17:52:57.654Z,2.66
2017-05-27T18:14:06.264Z,2.90
2017-05-27T18:35:13.731Z,3.04
2017-05-27T18:56:21.688Z,2.96
2017-05-27T19:17:28.102Z,3.44
2017-05-27T19:38:34.046Z,3.24
2017-05-27T19:59:39.934Z,3.22
2017-05-27T20:20:45.853Z,4.10
2017-05-27T20:41:53.173Z,4.00
2017-05-27T21:03:00.866Z,3.66
2017-05-27T21:24:07.843Z,3.84
2017-05-27T21:45:15.607Z,3.60
2017-05-27T22:06:22.496Z,4.46
2017-05-27T22:27:30.153Z,4.92
2017-05-27T22:48:37.251Z,3.68
2017-05-27T23:09:44.137Z,4.04
2017-05-27T23:30:50.277Z,4.08
2017-05-27T23:51:56.631Z,3.94
